Time;durP1;ratioP1;P1;durP2;ratioP2;P2;SDS_P1;SDS_P2;PMS_P1;PMS_P2;Temp;Humidity;BMP_temperature;BMP_pressure;BME280_temperature;BME280_humidity;BME280_pressure;Samples;Min_cycle;Max_cycle;Signal;HPM_P1;HPM_P2
2024/01/13 00:01:55;;;;;;;26.05;9.93;;;;;;;;;;5024779;28;20042;-82
2024/01/13 00:04:21;;;;;;;23.83;9.48;;;;;;;;;;5027554;28;20037;-81
2024/01/13 00:06:46;;;;;;;21.77;9.50;;;;;;;;;;5012270;28;20585;-80
2024/01/13 00:09:12;;;;;;;23.73;9.15;;;;;;;;;;5035585;28;20048;-82
2024/01/13 00:11:37;;;;;;;26.90;9.73;;;;;;;;;;5018246;28;20040;-82
2024/01/13 00:14:04;;;;;;;21.77;9.38;;;;;;;;;;5020621;28;20040;-82
2024/01/13 00:16:32;;;;;;;25.52;8.88;;;;;;;;;;5033832;28;20033;-81
2024/01/13 00:18:57;;;;;;;21.52;8.13;;;;;;;;;;5010871;28;20523;-82
2024/01/13 00:21:25;;;;;;;25.02;9.38;;;;;;;;;;5031524;28;20036;-82
2024/01/13 00:23:56;;;;;;;20.83;8.75;;;;;;;;;;5015516;28;20439;-82
2024/01/13 00:26:25;;;;;;;25.17;9.73;;;;;;;;;;5019970;28;20044;-81
2024/01/13 00:28:50;;;;;;;20.52;8.80;;;;;;;;;;5025757;28;20188;-81
2024/01/13 00:31:16;;;;;;;22.00;8.25;;;;;;;;;;5034261;28;20136;-82
2024/01/13 00:33:43;;;;;;;27.75;9.65;;;;;;;;;;5041718;28;20045;-81
2024/01/13 00:36:10;;;;;;;19.35;8.65;;;;;;;;;;5031202;28;20511;-82
2024/01/13 00:38:35;;;;;;;24.50;8.60;;;;;;;;;;5033928;28;20457;-81
2024/01/13 00:41:01;;;;;;;20.48;8.25;;;;;;;;;;5034141;28;20123;-82
2024/01/13 00:43:26;;;;;;;23.05;8.50;;;;;;;;;;5018383;28;20187;-81
2024/01/13 00:45:52;;;;;;;19.10;7.60;;;;;;;;;;5034017;28;20665;-81
2024/01/13 00:48:17;;;;;;;24.23;7.70;;;;;;;;;;5008544;28;20506;-81
2024/01/13 00:50:43;;;;;;;20.17;7.95;;;;;;;;;;4991981;28;20134;-82
2024/01/13 00:53:08;;;;;;;27.08;8.35;;;;;;;;;;5024896;28;20507;-82
2024/01/13 00:55:34;;;;;;;18.27;6.63;;;;;;;;;;5006976;28;20125;-81
2024/01/13 00:57:59;;;;;;;21.02;7.35;;;;;;;;;;5021050;28;20673;-82
2024/01/13 01:00:24;;;;;;;23.40;7.15;;;;;;;;;;5020947;28;20036;-82
2024/01/13 01:02:50;;;;;;;18.95;7.22;;;;;;;;;;5034221;28;20086;-82
2024/01/13 01:05:15;;;;;;;17.70;6.80;;;;;;;;;;5034416;28;20073;-82
2024/01/13 01:07:40;;;;;;;17.73;6.13;;;;;;;;;;5034306;28;20032;-81
2024/01/13 01:10:06;;;;;;;21.63;6.55;;;;;;;;;;5023467;28;20040;-82
2024/01/13 01:12:31;;;;;;;15.50;5.93;;;;;;;;;;5034704;28;20029;-81
2024/01/13 01:14:57;;;;;;;12.80;5.78;;;;;;;;;;5019548;28;20084;-82
2024/01/13 01:17:22;;;;;;;13.20;5.35;;;;;;;;;;5035274;28;20424;-81
2024/01/13 01:19:47;;;;;;;14.63;5.30;;;;;;;;;;4988214;28;20057;-82
2024/01/13 01:22:13;;;;;;;17.20;6.50;;;;;;;;;;5025059;28;20103;-81
2024/01/13 01:24:38;;;;;;;13.57;4.88;;;;;;;;;;5035248;28;20037;-80
2024/01/13 01:27:04;;;;;;;17.25;6.20;;;;;;;;;;5037885;28;20037;-81
2024/01/13 01:29:32;;;;;;;14.13;5.25;;;;;;;;;;5022260;28;20103;-82
2024/01/13 01:31:57;;;;;;;12.65;6.00;;;;;;;;;;5030150;28;20042;-82
2024/01/13 01:34:23;;;;;;;15.52;5.57;;;;;;;;;;5018821;28;20097;-81
2024/01/13 01:36:48;;;;;;;16.73;6.28;;;;;;;;;;5032030;28;20041;-81
2024/01/13 01:39:14;;;;;;;12.77;5.20;;;;;;;;;;5015635;28;20037;-81
2024/01/13 01:41:39;;;;;;;17.85;5.40;;;;;;;;;;5020197;28;20036;-82
2024/01/13 01:44:05;;;;;;;14.25;5.95;;;;;;;;;;5037143;28;20065;-82
2024/01/13 01:46:31;;;;;;;15.02;5.30;;;;;;;;;;5031030;28;20033;-81
2024/01/13 01:48:58;;;;;;;12.65;5.05;;;;;;;;;;5021587;28;20128;-82
2024/01/13 01:51:24;;;;;;;;;;;;;;;;;;5018208;28;20383;-82
2024/01/13 01:53:52;;;;;;;14.27;4.97;;;;;;;;;;5019281;28;19917;-82
2024/01/13 01:56:19;;;;;;;17.35;6.07;;;;;;;;;;5030723;28;20124;-82
2024/01/13 01:58:46;;;;;;;14.82;5.38;;;;;;;;;;5015736;28;20037;-82
2024/01/13 02:01:12;;;;;;;15.18;5.65;;;;;;;;;;5029361;28;20051;-81
2024/01/13 02:04:00;;;;;;;12.52;5.25;;;;;;;;;;4996339;28;20045;-81
2024/01/13 02:06:25;;;;;;;17.20;5.40;;;;;;;;;;4956659;28;20051;-82
2024/01/13 02:08:51;;;;;;;13.60;5.85;;;;;;;;;;4957262;28;20136;-82
2024/01/13 02:11:22;;;;;;;15.02;5.28;;;;;;;;;;4961422;28;20060;-81
2024/01/13 02:13:49;;;;;;;11.63;5.50;;;;;;;;;;4955099;28;20121;-82
2024/01/13 02:16:15;;;;;;;14.32;5.50;;;;;;;;;;4965084;28;20038;-82
2024/01/13 02:18:41;;;;;;;13.68;5.22;;;;;;;;;;4966910;28;20071;-82
2024/01/13 02:21:06;;;;;;;14.65;5.00;;;;;;;;;;4962272;28;20097;-82
2024/01/13 02:23:34;;;;;;;15.65;6.00;;;;;;;;;;4986742;28;21654;-82
2024/01/13 02:26:00;;;;;;;12.95;5.18;;;;;;;;;;4970944;28;20061;-81
2024/01/13 02:28:26;;;;;;;14.00;5.20;;;;;;;;;;4961476;28;20497;-82
2024/01/13 02:30:51;;;;;;;12.27;4.82;;;;;;;;;;4962504;28;20073;-81
2024/01/13 02:33:17;;;;;;;14.50;5.05;;;;;;;;;;4979165;28;20053;-81
2024/01/13 02:35:43;;;;;;;13.40;4.80;;;;;;;;;;4980338;28;20045;-82
2024/01/13 02:38:08;;;;;;;13.32;5.70;;;;;;;;;;4976242;28;20097;-82
2024/01/13 02:40:34;;;;;;;16.00;5.32;;;;;;;;;;4972751;28;20069;-82
2024/01/13 02:42:59;;;;;;;12.50;5.25;;;;;;;;;;4978344;28;20400;-82
2024/01/13 02:45:25;;;;;;;10.95;5.00;;;;;;;;;;5019255;28;20041;-83
2024/01/13 02:47:59;;;;;;;14.45;5.20;;;;;;;;;;5021329;28;21176;-83
2024/01/13 02:50:31;;;;;;;11.70;4.97;;;;;;;;;;5033514;28;20076;-82
2024/01/13 02:52:56;;;;;;;12.10;5.13;;;;;;;;;;5010251;28;20114;-83
2024/01/13 02:55:22;;;;;;;18.77;6.28;;;;;;;;;;5035158;28;20037;-83
2024/01/13 02:57:47;;;;;;;12.68;5.40;;;;;;;;;;5024754;28;20033;-82
2024/01/13 03:00:13;;;;;;;11.50;5.10;;;;;;;;;;5036922;28;20029;-81
2024/01/13 03:02:39;;;;;;;10.88;5.35;;;;;;;;;;5034547;28;20075;-82
2024/01/13 03:05:08;;;;;;;11.45;4.93;;;;;;;;;;5023550;28;20421;-82
2024/01/13 03:07:34;;;;;;;11.05;4.97;;;;;;;;;;5015214;28;20036;-82
2024/01/13 03:09:59;;;;;;;14.02;5.68;;;;;;;;;;5021732;28;20178;-83
2024/01/13 03:12:25;;;;;;;11.45;5.07;;;;;;;;;;5023693;28;20464;-82
2024/01/13 03:14:50;;;;;;;13.40;5.68;;;;;;;;;;5029073;28;20029;-82
2024/01/13 03:17:15;;;;;;;13.93;5.85;;;;;;;;;;5026644;28;20492;-81
2024/01/13 03:19:46;;;;;;;16.02;5.75;;;;;;;;;;5028359;28;20076;-81
2024/01/13 03:22:32;;;;;;;14.18;5.63;;;;;;;;;;5017619;28;20037;-82
2024/01/13 03:24:57;;;;;;;14.50;6.40;;;;;;;;;;4975158;28;20132;-81
2024/01/13 03:27:22;;;;;;;16.23;6.47;;;;;;;;;;4973887;28;20437;-82
2024/01/13 03:29:48;;;;;;;13.80;6.57;;;;;;;;;;4977822;28;20042;-81
2024/01/13 03:32:13;;;;;;;14.77;6.10;;;;;;;;;;4957614;28;20072;-81
2024/01/13 03:34:39;;;;;;;14.13;7.00;;;;;;;;;;4986057;28;20124;-81
2024/01/13 03:37:04;;;;;;;14.10;6.65;;;;;;;;;;4984063;28;20038;-81
2024/01/13 03:39:29;;;;;;;16.00;6.70;;;;;;;;;;4976206;28;20473;-81
2024/01/13 03:41:57;;;;;;;19.27;7.10;;;;;;;;;;4926854;28;20134;-82
2024/01/13 03:44:23;;;;;;;12.75;6.60;;;;;;;;;;4982638;28;20121;-83
2024/01/13 03:46:48;;;;;;;15.57;7.53;;;;;;;;;;4967656;28;20442;-82
2024/01/13 03:49:14;;;;;;;19.55;7.68;;;;;;;;;;4985312;28;20038;-82
2024/01/13 03:51:39;;;;;;;15.73;7.57;;;;;;;;;;4956888;28;20039;-82
2024/01/13 03:54:10;;;;;;;12.77;6.20;;;;;;;;;;4961446;28;20709;-82
2024/01/13 03:56:36;;;;;;;14.85;6.53;;;;;;;;;;4964733;28;20445;-82
2024/01/13 03:59:02;;;;;;;17.08;7.20;;;;;;;;;;4968687;28;20034;-82
2024/01/13 04:01:27;;;;;;;11.40;6.30;;;;;;;;;;4985351;28;20087;-82
2024/01/13 04:03:52;;;;;;;13.98;6.85;;;;;;;;;;5035523;28;20037;-81
2024/01/13 04:06:23;;;;;;;15.00;7.15;;;;;;;;;;5035685;28;20480;-82
2024/01/13 04:08:48;;;;;;;12.35;6.40;;;;;;;;;;5034373;28;20416;-82
2024/01/13 04:11:14;;;;;;;13.52;6.20;;;;;;;;;;5032223;28;20029;-82
2024/01/13 04:13:39;;;;;;;17.52;7.20;;;;;;;;;;5023092;28;20065;-81
2024/01/13 04:16:05;;;;;;;12.98;6.72;;;;;;;;;;5023585;28;20471;-81
2024/01/13 04:18:31;;;;;;;12.68;7.00;;;;;;;;;;5034393;28;20084;-81
2024/01/13 04:20:56;;;;;;;15.88;7.35;;;;;;;;;;5018038;28;20029;-82
2024/01/13 04:23:22;;;;;;;14.68;6.85;;;;;;;;;;5022750;28;20055;-82
2024/01/13 04:25:47;;;;;;;15.05;6.70;;;;;;;;;;5022170;28;20037;-82
2024/01/13 04:28:13;;;;;;;15.57;7.13;;;;;;;;;;5020246;28;20033;-80
2024/01/13 04:30:38;;;;;;;14.30;7.35;;;;;;;;;;5020513;28;20481;-81
2024/01/13 04:33:10;;;;;;;12.52;6.85;;;;;;;;;;5035371;28;20049;-81
2024/01/13 04:35:35;;;;;;;14.02;6.90;;;;;;;;;;5037141;28;20047;-80
2024/01/13 04:38:01;;;;;;;14.73;6.93;;;;;;;;;;5009697;28;20036;-81
2024/01/13 04:40:29;;;;;;;16.65;6.80;;;;;;;;;;5013544;28;20079;-81
2024/01/13 04:42:55;;;;;;;;;;;;;;;;;;5035759;28;20041;-81
2024/01/13 04:45:20;;;;;;;14.27;6.80;;;;;;;;;;5033894;28;19948;-81
2024/01/13 04:47:45;;;;;;;14.65;6.65;;;;;;;;;;5021076;28;20753;-81
2024/01/13 04:50:11;;;;;;;13.50;6.57;;;;;;;;;;5034916;28;20488;-81
2024/01/13 04:52:39;;;;;;;15.73;6.85;;;;;;;;;;5024215;28;20102;-81
2024/01/13 04:55:05;;;;;;;13.50;6.45;;;;;;;;;;5005690;28;20033;-81
2024/01/13 04:57:31;;;;;;;15.18;7.60;;;;;;;;;;5012354;28;20091;-81
2024/01/13 04:59:57;;;;;;;13.30;6.70;;;;;;;;;;5036270;28;20047;-81
2024/01/13 05:02:22;;;;;;;13.50;7.05;;;;;;;;;;5033363;28;20478;-81
2024/01/13 05:04:47;;;;;;;13.90;6.78;;;;;;;;;;5036535;28;20064;-80
2024/01/13 05:07:13;;;;;;;13.90;6.80;;;;;;;;;;5039086;28;20037;-81
2024/01/13 05:09:39;;;;;;;12.73;6.35;;;;;;;;;;5027270;28;20033;-82
2024/01/13 05:12:11;;;;;;;13.85;6.75;;;;;;;;;;5031138;28;20531;-80
2024/01/13 05:14:37;;;;;;;15.85;6.95;;;;;;;;;;4993409;28;20036;-81
2024/01/13 05:17:02;;;;;;;12.88;6.53;;;;;;;;;;5023872;28;21219;-82
2024/01/13 05:19:28;;;;;;;16.02;6.85;;;;;;;;;;5000380;28;20091;-82
2024/01/13 05:21:53;;;;;;;15.52;6.95;;;;;;;;;;5013628;28;20385;-82
2024/01/13 05:24:21;;;;;;;13.65;6.50;;;;;;;;;;5023347;28;20052;-82
2024/01/13 05:26:50;;;;;;;13.80;7.30;;;;;;;;;;5030275;28;20582;-81
2024/01/13 05:29:15;;;;;;;14.73;7.43;;;;;;;;;;5018014;28;20506;-81
2024/01/13 05:31:41;;;;;;;16.40;7.78;;;;;;;;;;5014794;28;20083;-82
2024/01/13 05:34:07;;;;;;;15.73;7.60;;;;;;;;;;5049306;28;20037;-82
2024/01/13 05:36:32;;;;;;;15.55;7.93;;;;;;;;;;5038599;28;20104;-81
2024/01/13 05:38:57;;;;;;;16.73;8.05;;;;;;;;;;5024485;28;20037;-82
2024/01/13 05:41:23;;;;;;;17.27;7.95;;;;;;;;;;5025360;28;20068;-81
2024/01/13 05:43:48;;;;;;;19.35;9.00;;;;;;;;;;5005985;28;20041;-82
2024/01/13 05:46:14;;;;;;;19.33;9.30;;;;;;;;;;5036564;28;20033;-81
2024/01/13 05:48:39;;;;;;;19.08;9.00;;;;;;;;;;5036287;28;20048;-82
2024/01/13 05:51:04;;;;;;;18.10;9.07;;;;;;;;;;5035386;28;20500;-81
2024/01/13 05:53:30;;;;;;;15.45;8.15;;;;;;;;;;5037459;28;20076;-82
2024/01/13 05:55:55;;;;;;;16.35;8.48;;;;;;;;;;5039846;28;20028;-82
2024/01/13 05:58:21;;;;;;;16.83;8.43;;;;;;;;;;5036954;28;20041;-82
2024/01/13 06:00:46;;;;;;;19.27;9.68;;;;;;;;;;5013883;28;20033;-82
2024/01/13 06:03:11;;;;;;;19.42;8.48;;;;;;;;;;5026556;28;20033;-82
2024/01/13 06:05:38;;;;;;;15.90;8.00;;;;;;;;;;5042273;28;20588;-82
2024/01/13 06:08:07;;;;;;;17.05;8.32;;;;;;;;;;5035742;28;20042;-82
2024/01/13 06:10:33;;;;;;;20.50;9.25;;;;;;;;;;5022170;28;20067;-82
2024/01/13 06:12:59;;;;;;;16.98;8.70;;;;;;;;;;5027996;28;20033;-82
2024/01/13 06:15:26;;;;;;;15.65;8.50;;;;;;;;;;5045449;28;20159;-82
2024/01/13 06:17:51;;;;;;;16.77;7.70;;;;;;;;;;5035118;28;20036;-82
2024/01/13 06:20:25;;;;;;;17.13;8.27;;;;;;;;;;5037028;28;20286;-81
2024/01/13 06:22:53;;;;;;;14.20;7.85;;;;;;;;;;5029192;28;20041;-83
2024/01/13 06:25:18;;;;;;;17.02;8.88;;;;;;;;;;5022531;28;20045;-82
2024/01/13 06:27:44;;;;;;;14.95;7.60;;;;;;;;;;5032127;28;20048;-81
2024/01/13 06:30:10;;;;;;;13.63;7.00;;;;;;;;;;5007047;28;20120;-81
2024/01/13 06:32:36;;;;;;;14.82;7.93;;;;;;;;;;5032138;28;20060;-82
2024/01/13 06:35:02;;;;;;;14.57;7.05;;;;;;;;;;5027745;28;20036;-82
2024/01/13 06:37:27;;;;;;;13.55;7.10;;;;;;;;;;5024557;28;20029;-82
2024/01/13 06:39:52;;;;;;;14.60;7.10;;;;;;;;;;5035432;28;20075;-82
2024/01/13 06:42:18;;;;;;;12.57;6.80;;;;;;;;;;5027120;28;20032;-83
2024/01/13 06:44:49;;;;;;;12.55;6.45;;;;;;;;;;5018555;28;20045;-82
2024/01/13 06:47:14;;;;;;;12.95;7.03;;;;;;;;;;5026149;28;20033;-82
2024/01/13 06:49:40;;;;;;;13.15;6.63;;;;;;;;;;5025715;28;20562;-81
2024/01/13 06:52:08;;;;;;;12.43;6.03;;;;;;;;;;5014802;28;20029;-81
2024/01/13 06:54:39;;;;;;;11.30;5.88;;;;;;;;;;5021670;28;20036;-82
2024/01/13 06:57:05;;;;;;;12.20;5.97;;;;;;;;;;5011331;28;20474;-84
2024/01/13 06:59:30;;;;;;;11.88;5.93;;;;;;;;;;5024100;28;20090;-84
2024/01/13 07:01:56;;;;;;;9.68;5.20;;;;;;;;;;4997047;28;20036;-84
2024/01/13 07:04:21;;;;;;;11.02;5.65;;;;;;;;;;5020167;28;20135;-83
2024/01/13 07:06:47;;;;;;;12.38;5.65;;;;;;;;;;5038569;28;20431;-81
2024/01/13 07:09:12;;;;;;;9.43;5.30;;;;;;;;;;5029401;28;20107;-83
2024/01/13 07:11:38;;;;;;;11.07;5.75;;;;;;;;;;5035536;28;20571;-84
2024/01/13 07:14:06;;;;;;;11.07;5.45;;;;;;;;;;5027691;28;20042;-83
2024/01/13 07:16:32;;;;;;;10.35;4.93;;;;;;;;;;5002059;28;20429;-83
2024/01/13 07:18:57;;;;;;;10.05;5.20;;;;;;;;;;5040147;28;20063;-83
2024/01/13 07:21:29;;;;;;;8.77;4.95;;;;;;;;;;5012285;28;20393;-83
2024/01/13 07:23:57;;;;;;;9.40;4.72;;;;;;;;;;5010024;28;20115;-83
2024/01/13 07:26:23;;;;;;;10.20;5.25;;;;;;;;;;5026819;28;20041;-82
2024/01/13 07:28:48;;;;;;;8.63;4.75;;;;;;;;;;5039597;28;20072;-83
2024/01/13 07:31:14;;;;;;;9.13;4.68;;;;;;;;;;5038494;28;20033;-83
2024/01/13 07:33:41;;;;;;;7.03;4.10;;;;;;;;;;5023778;28;20110;-84
2024/01/13 07:36:08;;;;;;;8.93;4.43;;;;;;;;;;5024036;28;20044;-83
2024/01/13 07:38:44;;;;;;;8.05;4.40;;;;;;;;;;5014381;28;20037;-82
2024/01/13 07:41:11;;;;;;;8.02;4.38;;;;;;;;;;5024163;28;20030;-83
2024/01/13 07:43:39;;;;;;;9.30;4.85;;;;;;;;;;5005506;28;20033;-83
2024/01/13 07:46:05;;;;;;;9.07;5.22;;;;;;;;;;5014543;28;20048;-83
2024/01/13 07:48:33;;;;;;;7.93;4.47;;;;;;;;;;5037433;28;20057;-84
2024/01/13 07:50:59;;;;;;;9.82;4.03;;;;;;;;;;5009779;28;20057;-84
2024/01/13 07:53:30;;;;;;;7.30;4.07;;;;;;;;;;5027956;28;20071;-83
2024/01/13 07:55:55;;;;;;;7.53;4.03;;;;;;;;;;5010670;28;20077;-84
2024/01/13 07:58:21;;;;;;;7.20;3.95;;;;;;;;;;5001053;28;20072;-83
2024/01/13 08:00:46;;;;;;;7.97;4.15;;;;;;;;;;5029790;28;20562;-82
2024/01/13 08:03:14;;;;;;;8.07;4.25;;;;;;;;;;5009577;28;20385;-83
2024/01/13 08:05:40;;;;;;;7.57;3.90;;;;;;;;;;5019833;28;20500;-82
2024/01/13 08:08:07;;;;;;;7.95;4.45;;;;;;;;;;5036586;28;20064;-83
2024/01/13 08:10:32;;;;;;;7.47;4.10;;;;;;;;;;5034364;28;20068;-83
2024/01/13 08:13:01;;;;;;;7.68;3.90;;;;;;;;;;5017309;28;20068;-84
2024/01/13 08:15:27;;;;;;;7.40;4.10;;;;;;;;;;5004488;28;20574;-83
2024/01/13 08:17:52;;;;;;;7.60;3.97;;;;;;;;;;5027800;28;20029;-83
2024/01/13 08:20:19;;;;;;;7.45;3.58;;;;;;;;;;5033758;28;20032;-85
2024/01/13 08:22:46;;;;;;;7.07;3.90;;;;;;;;;;5015823;28;20121;-85
2024/01/13 08:25:11;;;;;;;7.43;3.50;;;;;;;;;;5022346;28;20045;-85
2024/01/13 08:27:40;;;;;;;7.05;3.65;;;;;;;;;;5025169;28;20055;-85
2024/01/13 08:30:06;;;;;;;7.47;3.95;;;;;;;;;;5017092;28;20048;-85
2024/01/13 08:32:33;;;;;;;7.63;3.80;;;;;;;;;;5023153;28;20424;-84
2024/01/13 08:34:58;;;;;;;8.18;4.38;;;;;;;;;;5024014;28;20116;-84
2024/01/13 08:37:24;;;;;;;7.88;3.50;;;;;;;;;;5022677;28;20108;-84
2024/01/13 08:39:50;;;;;;;7.43;3.78;;;;;;;;;;5025804;28;20094;-84
2024/01/13 08:42:15;;;;;;;8.00;4.35;;;;;;;;;;5038500;28;20029;-85
2024/01/13 08:44:40;;;;;;;9.13;3.40;;;;;;;;;;5036456;28;20163;-85
2024/01/13 08:47:24;;;;;;;9.27;4.20;;;;;;;;;;5032985;28;20040;-84
2024/01/13 08:49:49;;;;;;;8.25;4.05;;;;;;;;;;5036904;28;20131;-85
2024/01/13 08:52:14;;;;;;;7.78;3.80;;;;;;;;;;5025874;28;20137;-84
2024/01/13 08:54:40;;;;;;;8.27;4.05;;;;;;;;;;5027586;28;20120;-83
2024/01/13 08:57:06;;;;;;;8.55;3.92;;;;;;;;;;5005452;28;20488;-84
2024/01/13 08:59:33;;;;;;;7.05;3.92;;;;;;;;;;5025158;28;20162;-84
2024/01/13 09:02:00;;;;;;;6.20;3.50;;;;;;;;;;5029183;28;20721;-84
2024/01/13 09:04:25;;;;;;;6.40;3.30;;;;;;;;;;5040490;28;20061;-84
2024/01/13 09:06:51;;;;;;;6.38;3.60;;;;;;;;;;5020654;28;20065;-83
2024/01/13 09:09:29;;;;;;;;;;;;;;;;;;;;;
2024/01/13 09:11:57;;;;;;;6.22;3.63;;;;;;;;;;5032891;28;20036;-83
2024/01/13 09:14:22;;;;;;;;;;;;;;;;;;5025874;28;20044;-83
2024/01/13 09:16:55;;;;;;;6.10;3.00;;;;;;;;;;5026679;28;19966;-82
2024/01/13 09:19:20;;;;;;;6.05;3.28;;;;;;;;;;5035687;28;20455;-82
2024/01/13 09:21:46;;;;;;;6.05;3.05;;;;;;;;;;5012740;28;20045;-85
2024/01/13 09:24:11;;;;;;;5.72;2.80;;;;;;;;;;5006048;28;20072;-85
2024/01/13 09:26:41;;;;;;;5.38;3.10;;;;;;;;;;5021961;28;20029;-85
2024/01/13 09:29:06;;;;;;;4.65;2.47;;;;;;;;;;5046946;28;20115;-83
2024/01/13 09:31:31;;;;;;;7.43;2.80;;;;;;;;;;5028956;28;20144;-84
2024/01/13 09:33:57;;;;;;;5.32;2.92;;;;;;;;;;5042127;28;20124;-84
2024/01/13 09:36:29;;;;;;;5.47;3.13;;;;;;;;;;4998715;28;20037;-84
2024/01/13 09:38:55;;;;;;;5.38;2.67;;;;;;;;;;5031750;28;20069;-84
2024/01/13 09:41:20;;;;;;;5.78;2.95;;;;;;;;;;5042166;28;20114;-85
2024/01/13 09:43:58;;;;;;;5.65;3.10;;;;;;;;;;5038624;28;20087;-85
2024/01/13 09:46:24;;;;;;;5.95;3.17;;;;;;;;;;5037544;28;20029;-85
2024/01/13 09:48:54;;;;;;;5.40;3.00;;;;;;;;;;5037402;28;20477;-83
2024/01/13 09:51:19;;;;;;;5.72;3.08;;;;;;;;;;5039449;28;20068;-84
2024/01/13 09:53:54;;;;;;;4.78;2.78;;;;;;;;;;5024843;28;20115;-85
2024/01/13 09:56:25;;;;;;;5.55;2.63;;;;;;;;;;5023829;28;20041;-85
2024/01/13 09:58:50;;;;;;;5.13;2.78;;;;;;;;;;5008126;28;20610;-85
2024/01/13 10:01:16;;;;;;;5.43;2.72;;;;;;;;;;5016505;28;20042;-84
2024/01/13 10:03:53;;;;;;;5.05;2.58;;;;;;;;;;5038695;28;20053;-84
2024/01/13 10:06:18;;;;;;;;;;;;;;;;;;5041345;28;20037;-85
2024/01/13 10:08:44;;;;;;;4.10;2.08;;;;;;;;;;5024587;28;19912;-84
2024/01/13 10:11:09;;;;;;;4.50;2.25;;;;;;;;;;5026740;28;20389;-85
2024/01/13 10:13:36;;;;;;;6.00;2.70;;;;;;;;;;5038340;28;20043;-83
2024/01/13 10:16:02;;;;;;;5.18;2.92;;;;;;;;;;5022353;28;20025;-84
2024/01/13 10:18:31;;;;;;;4.60;2.45;;;;;;;;;;5042438;28;20092;-86
2024/01/13 10:20:56;;;;;;;4.90;2.80;;;;;;;;;;5036641;28;20116;-86
2024/01/13 10:23:22;;;;;;;4.93;2.65;;;;;;;;;;5042126;28;20125;-85
2024/01/13 10:25:49;;;;;;;5.75;2.50;;;;;;;;;;5045129;28;20044;-84
2024/01/13 10:28:20;;;;;;;5.35;2.50;;;;;;;;;;5029184;28;20041;-83
2024/01/13 10:30:49;;;;;;;4.13;2.22;;;;;;;;;;5014513;28;20513;-83
2024/01/13 10:33:17;;;;;;;4.68;2.30;;;;;;;;;;5036981;28;20037;-86
2024/01/13 10:35:47;;;;;;;5.80;2.47;;;;;;;;;;5028123;28;20095;-84
2024/01/13 10:38:13;;;;;;;4.25;2.40;;;;;;;;;;5020367;28;20033;-84
2024/01/13 10:40:39;;;;;;;5.18;2.92;;;;;;;;;;5028262;28;20880;-85
2024/01/13 10:43:15;;;;;;;5.43;2.38;;;;;;;;;;5005294;28;20072;-85
2024/01/13 10:45:42;;;;;;;4.65;2.63;;;;;;;;;;5039841;28;20124;-87
2024/01/13 10:48:22;;;;;;;5.38;2.67;;;;;;;;;;5020847;28;20083;-85
2024/01/13 10:50:49;;;;;;;4.90;2.85;;;;;;;;;;5000878;28;20037;-85
2024/01/13 10:53:26;;;;;;;4.97;2.78;;;;;;;;;;5026422;28;20455;-82
2024/01/13 10:55:53;;;;;;;4.57;2.70;;;;;;;;;;5036220;28;20087;-84
2024/01/13 10:58:19;;;;;;;4.78;2.80;;;;;;;;;;5044009;28;20100;-83
2024/01/13 11:00:45;;;;;;;5.63;3.03;;;;;;;;;;5016639;28;20034;-83
2024/01/13 11:03:14;;;;;;;5.57;2.83;;;;;;;;;;5019834;28;20033;-83
2024/01/13 11:05:39;;;;;;;4.75;2.65;;;;;;;;;;5021204;28;20545;-83
2024/01/13 11:08:06;;;;;;;5.28;2.75;;;;;;;;;;5036814;28;20116;-83
2024/01/13 11:10:36;;;;;;;5.25;2.92;;;;;;;;;;5023058;28;20060;-84
2024/01/13 11:13:08;;;;;;;5.97;2.85;;;;;;;;;;5013333;28;20030;-83
2024/01/13 11:15:41;;;;;;;4.72;2.75;;;;;;;;;;5018834;28;20033;-85
2024/01/13 11:18:07;;;;;;;4.53;2.80;;;;;;;;;;5022901;28;20116;-84
2024/01/13 11:21:01;;;;;;;4.30;2.30;;;;;;;;;;5034499;28;20112;-83
2024/01/13 11:23:26;;;;;;;4.88;2.72;;;;;;;;;;5025132;28;20125;-83
2024/01/13 11:25:52;;;;;;;4.60;2.72;;;;;;;;;;5000156;28;20516;-82
2024/01/13 11:28:38;;;;;;;4.40;2.78;;;;;;;;;;5042321;28;20052;-83
2024/01/13 11:31:03;;;;;;;4.40;2.70;;;;;;;;;;4964400;28;20042;-84
2024/01/13 11:33:28;;;;;;;4.70;2.38;;;;;;;;;;4949231;28;20034;-84
2024/01/13 11:35:54;;;;;;;4.97;3.03;;;;;;;;;;4947871;28;20053;-84
2024/01/13 11:38:21;;;;;;;5.07;2.50;;;;;;;;;;4980660;28;20038;-83
2024/01/13 11:40:48;;;;;;;;;;;;;;;;;;4958694;28;20054;-83
2024/01/13 11:43:23;;;;;;;4.25;2.50;;;;;;;;;;4970559;28;19917;-84
2024/01/13 11:45:53;;;;;;;4.30;2.65;;;;;;;;;;4977905;28;20473;-83
2024/01/13 11:48:35;;;;;;;4.65;2.60;;;;;;;;;;4977320;28;20037;-83
2024/01/13 11:51:01;;;;;;;3.90;2.45;;;;;;;;;;4957171;28;20096;-82
2024/01/13 11:53:32;;;;;;;3.90;2.30;;;;;;;;;;4968134;28;20974;-84
2024/01/13 11:55:58;;;;;;;4.38;2.70;;;;;;;;;;4962893;28;20073;-83
2024/01/13 11:58:23;;;;;;;4.20;2.45;;;;;;;;;;4979415;28;20062;-83
2024/01/13 12:00:51;;;;;;;4.25;2.25;;;;;;;;;;4970517;28;20053;-82
2024/01/13 12:03:20;;;;;;;3.97;1.95;;;;;;;;;;4956881;28;20053;-83
2024/01/13 12:05:45;;;;;;;3.42;1.90;;;;;;;;;;4976505;28;20034;-82
2024/01/13 12:08:12;;;;;;;4.38;1.95;;;;;;;;;;4994606;28;20033;-83
2024/01/13 12:11:04;;;;;;;3.55;2.08;;;;;;;;;;5036335;28;20057;-83
2024/01/13 12:13:29;;;;;;;3.88;2.25;;;;;;;;;;4969568;28;20026;-84
2024/01/13 12:16:07;;;;;;;4.22;1.85;;;;;;;;;;4957350;28;20581;-83
2024/01/13 12:18:45;;;;;;;5.38;1.95;;;;;;;;;;4970492;28;20489;-82
2024/01/13 12:21:10;;;;;;;3.70;1.88;;;;;;;;;;4943957;28;20041;-82
2024/01/13 12:23:36;;;;;;;3.97;2.15;;;;;;;;;;4963506;28;20039;-84
2024/01/13 12:26:02;;;;;;;4.18;2.08;;;;;;;;;;4963399;28;20038;-84
2024/01/13 12:28:30;;;;;;;3.90;1.88;;;;;;;;;;4965734;28;20088;-84
2024/01/13 12:30:55;;;;;;;5.28;2.20;;;;;;;;;;4962581;28;20046;-84
2024/01/13 12:33:24;;;;;;;4.90;2.00;;;;;;;;;;4943699;28;20142;-84
2024/01/13 12:36:05;;;;;;;3.30;1.90;;;;;;;;;;4933827;28;20525;-85
2024/01/13 12:38:31;;;;;;;5.75;2.30;;;;;;;;;;4937361;28;20041;-83
2024/01/13 12:40:59;;;;;;;3.65;1.92;;;;;;;;;;4972473;28;20413;-83
2024/01/13 12:43:25;;;;;;;3.30;1.65;;;;;;;;;;4962774;28;20042;-84
2024/01/13 12:45:58;;;;;;;3.53;1.95;;;;;;;;;;4963460;28;20034;-84
2024/01/13 12:48:25;;;;;;;4.97;1.90;;;;;;;;;;4959690;28;20502;-85
2024/01/13 12:50:50;;;;;;;3.63;2.00;;;;;;;;;;4977318;28;20033;-82
2024/01/13 12:53:26;;;;;;;4.00;1.80;;;;;;;;;;4998244;28;20539;-84
2024/01/13 12:55:53;;;;;;;4.20;1.80;;;;;;;;;;5008209;28;20389;-83
2024/01/13 12:58:21;;;;;;;3.65;2.00;;;;;;;;;;5035491;28;20126;-82
2024/01/13 13:00:46;;;;;;;4.68;2.40;;;;;;;;;;5022812;28;20116;-83
2024/01/13 13:03:14;;;;;;;3.78;1.70;;;;;;;;;;5031935;28;20155;-84
2024/01/13 13:05:39;;;;;;;;;;;;;;;;;;5036992;28;20029;-83
2024/01/13 13:08:10;;;;;;;6.47;2.20;;;;;;;;;;5006742;28;19938;-84
2024/01/13 13:10:35;;;;;;;4.22;2.00;;;;;;;;;;5005168;28;20088;-84
2024/01/13 13:13:06;;;;;;;4.30;2.08;;;;;;;;;;5042116;28;20060;-84
2024/01/13 13:15:32;;;;;;;4.50;2.47;;;;;;;;;;5012889;28;20030;-83
2024/01/13 13:17:57;;;;;;;3.50;2.10;;;;;;;;;;5033025;28;20050;-83
2024/01/13 13:20:33;;;;;;;4.82;2.20;;;;;;;;;;4999539;28;20432;-85
2024/01/13 13:23:01;;;;;;;5.13;2.38;;;;;;;;;;4983587;28;20404;-85
2024/01/13 13:25:27;;;;;;;4.28;2.30;;;;;;;;;;5001868;28;20111;-83
2024/01/13 13:27:53;;;;;;;5.75;2.47;;;;;;;;;;4992578;28;20124;-85
2024/01/13 13:30:20;;;;;;;5.90;2.40;;;;;;;;;;5010409;28;20120;-85
2024/01/13 13:32:46;;;;;;;5.03;2.85;;;;;;;;;;5012816;28;20095;-84
2024/01/13 13:35:11;;;;;;;4.38;2.40;;;;;;;;;;5019753;28;20053;-85
2024/01/13 13:37:37;;;;;;;4.40;2.50;;;;;;;;;;5030660;28;20033;-85
2024/01/13 13:40:09;;;;;;;4.90;2.80;;;;;;;;;;5025381;28;20079;-86
2024/01/13 13:42:35;;;;;;;5.13;2.78;;;;;;;;;;4994643;28;20044;-84
2024/01/13 13:45:04;;;;;;;7.22;3.10;;;;;;;;;;5023968;28;20037;-84
2024/01/13 13:47:32;;;;;;;4.30;2.60;;;;;;;;;;5025186;28;20026;-84
2024/01/13 13:50:02;;;;;;;6.35;2.83;;;;;;;;;;5004050;28;20408;-84
2024/01/13 13:52:28;;;;;;;4.45;2.70;;;;;;;;;;5015384;28;20037;-84
2024/01/13 13:54:56;;;;;;;5.10;3.33;;;;;;;;;;5017388;28;20060;-86
2024/01/13 13:57:24;;;;;;;6.55;3.30;;;;;;;;;;5001609;28;20041;-85
2024/01/13 14:02:49;;;;;;;6.22;3.28;;;;;;;;;;4972438;28;20128;-84
2024/01/13 14:05:31;;;;;;;6.03;3.30;;;;;;;;;;5008827;28;20048;-85
2024/01/13 14:07:59;;;;;;;5.75;3.40;;;;;;;;;;5017440;28;20033;-83
2024/01/13 14:10:39;;;;;;;5.40;3.17;;;;;;;;;;5022449;28;20051;-84
2024/01/13 14:13:05;;;;;;;7.95;3.88;;;;;;;;;;5021815;28;20037;-84
2024/01/13 14:15:30;;;;;;;6.28;3.80;;;;;;;;;;5025731;28;20041;-83
2024/01/13 14:18:00;;;;;;;9.45;4.07;;;;;;;;;;5017865;28;20500;-83
2024/01/13 14:20:37;;;;;;;7.80;4.43;;;;;;;;;;5004024;28;20121;-82
2024/01/13 14:23:03;;;;;;;7.82;4.82;;;;;;;;;;5013015;28;20088;-82
2024/01/13 14:25:29;;;;;;;8.05;5.38;;;;;;;;;;5035087;28;20580;-81
2024/01/13 14:27:54;;;;;;;8.98;5.55;;;;;;;;;;5029463;28;20037;-82
2024/01/13 14:30:23;;;;;;;9.25;5.63;;;;;;;;;;5041632;28;20516;-83
2024/01/13 14:32:48;;;;;;;10.05;6.22;;;;;;;;;;5028499;28;20053;-83
2024/01/13 14:35:14;;;;;;;12.27;6.85;;;;;;;;;;5022033;28;20033;-84
2024/01/13 14:37:40;;;;;;;12.18;7.07;;;;;;;;;;5001839;28;20044;-83
2024/01/13 14:40:07;;;;;;;12.88;7.85;;;;;;;;;;5012243;28;20033;-84
2024/01/13 14:42:37;;;;;;;11.05;7.32;;;;;;;;;;5012022;28;20037;-84